< < Back
Terminal Aerodrome Forecast


Current Version              Previous Versions:   1  2  3  4  5  6  7  8  9  

Terminal Aerodrome Forecast

416
FTUS42 KTAE 240500
TAFVLD
TAF
KVLD 240533Z 2406/2506 18005KT 5SM BR VCSH OVC003
     FM241000 19007KT 6SM SHRA BR FEW003 BKN007
     FM241600 21010KT P6SM SHRA VCTS BKN025CB
     FM242300 22004KT P6SM SCT040 BKN100=



Latest METAR

565
SAUS70 KWBC 240700 RRH
MTRVLD
METAR KVLD 240653Z AUTO 19006KT 1SM BR OVC002 19/19 A2984 RMK AO2 SLP112
T01940194 $


USA.gov is the U.S. government's official web portal to all federal, state and local government web resources and services.